sensor_id;sensor_type;location;lat;lon;timestamp;temperature;humidity
5334;DHT22;2689;50.954;7.116;2024-01-25T00:02:26;10.00;99.90
5334;DHT22;2689;50.954;7.116;2024-01-25T00:04:53;9.90;99.90
5334;DHT22;2689;50.954;7.116;2024-01-25T00:07:20;9.90;99.90
5334;DHT22;2689;50.954;7.116;2024-01-25T00:09:47;9.90;99.90
5334;DHT22;2689;50.954;7.116;2024-01-25T00:12:13;9.90;99.90
5334;DHT22;2689;50.954;7.116;2024-01-25T00:14:40;9.80;99.90
5334;DHT22;2689;50.954;7.116;2024-01-25T00:17:07;9.80;99.90
5334;DHT22;2689;50.954;7.116;2024-01-25T00:19:35;9.80;99.90
5334;DHT22;2689;50.954;7.116;2024-01-25T00:22:02;9.80;99.90
5334;DHT22;2689;50.954;7.116;2024-01-25T00:24:29;9.80;99.90
5334;DHT22;2689;50.954;7.116;2024-01-25T00:26:55;9.80;99.90
5334;DHT22;2689;50.954;7.116;2024-01-25T00:29:22;9.90;99.90
5334;DHT22;2689;50.954;7.116;2024-01-25T00:31:49;9.90;99.90
5334;DHT22;2689;50.954;7.116;2024-01-25T00:34:16;9.90;99.90
5334;DHT22;2689;50.954;7.116;2024-01-25T00:36:45;9.90;99.90
5334;DHT22;2689;50.954;7.116;2024-01-25T00:39:12;9.90;99.90
5334;DHT22;2689;50.954;7.116;2024-01-25T00:41:40;9.90;99.90
5334;DHT22;2689;50.954;7.116;2024-01-25T00:44:10;9.90;99.90
5334;DHT22;2689;50.954;7.116;2024-01-25T00:46:37;9.90;99.90
5334;DHT22;2689;50.954;7.116;2024-01-25T00:49:06;9.80;99.90
5334;DHT22;2689;50.954;7.116;2024-01-25T00:51:33;9.90;99.90
5334;DHT22;2689;50.954;7.116;2024-01-25T00:54:03;9.90;99.90
5334;DHT22;2689;50.954;7.116;2024-01-25T00:56:31;9.90;99.90
5334;DHT22;2689;50.954;7.116;2024-01-25T00:58:58;10.00;99.90
5334;DHT22;2689;50.954;7.116;2024-01-25T01:01:26;10.00;99.90
5334;DHT22;2689;50.954;7.116;2024-01-25T01:03:55;9.90;99.90
5334;DHT22;2689;50.954;7.116;2024-01-25T01:06:22;10.00;99.90
5334;DHT22;2689;50.954;7.116;2024-01-25T01:08:49;9.90;99.90
5334;DHT22;2689;50.954;7.116;2024-01-25T01:11:17;9.90;99.90
5334;DHT22;2689;50.954;7.116;2024-01-25T01:13:44;9.90;99.90
5334;DHT22;2689;50.954;7.116;2024-01-25T01:16:11;9.90;99.90
5334;DHT22;2689;50.954;7.116;2024-01-25T01:18:38;9.90;99.90
5334;DHT22;2689;50.954;7.116;2024-01-25T01:21:05;9.90;99.90
5334;DHT22;2689;50.954;7.116;2024-01-25T01:23:32;9.90;99.90
5334;DHT22;2689;50.954;7.116;2024-01-25T01:25:58;9.90;99.90
5334;DHT22;2689;50.954;7.116;2024-01-25T01:28:27;10.00;99.90
5334;DHT22;2689;50.954;7.116;2024-01-25T01:30:53;9.90;99.90
5334;DHT22;2689;50.954;7.116;2024-01-25T01:33:20;9.90;99.90
5334;DHT22;2689;50.954;7.116;2024-01-25T01:35:47;9.80;99.90
5334;DHT22;2689;50.954;7.116;2024-01-25T01:38:14;9.80;99.90
5334;DHT22;2689;50.954;7.116;2024-01-25T01:40:41;9.70;99.90
5334;DHT22;2689;50.954;7.116;2024-01-25T01:43:07;9.70;99.90
5334;DHT22;2689;50.954;7.116;2024-01-25T01:45:45;9.60;99.90
5334;DHT22;2689;50.954;7.116;2024-01-25T01:48:12;9.50;99.90
5334;DHT22;2689;50.954;7.116;2024-01-25T01:50:39;9.40;99.90
5334;DHT22;2689;50.954;7.116;2024-01-25T01:53:06;9.40;99.90
5334;DHT22;2689;50.954;7.116;2024-01-25T01:55:33;9.30;99.90
5334;DHT22;2689;50.954;7.116;2024-01-25T01:58:00;9.30;99.90
5334;DHT22;2689;50.954;7.116;2024-01-25T02:00:30;9.20;99.90
5334;DHT22;2689;50.954;7.116;2024-01-25T02:02:58;9.20;99.90
5334;DHT22;2689;50.954;7.116;2024-01-25T02:05:26;9.10;99.90
5334;DHT22;2689;50.954;7.116;2024-01-25T02:07:52;9.10;99.90
5334;DHT22;2689;50.954;7.116;2024-01-25T02:10:19;9.00;99.90
5334;DHT22;2689;50.954;7.116;2024-01-25T02:12:46;9.00;99.90
5334;DHT22;2689;50.954;7.116;2024-01-25T02:15:13;9.00;99.90
5334;DHT22;2689;50.954;7.116;2024-01-25T02:17:40;8.90;99.90
5334;DHT22;2689;50.954;7.116;2024-01-25T02:20:09;8.90;99.90
5334;DHT22;2689;50.954;7.116;2024-01-25T02:22:37;8.90;99.90
5334;DHT22;2689;50.954;7.116;2024-01-25T02:25:05;8.90;99.90
5334;DHT22;2689;50.954;7.116;2024-01-25T02:27:32;8.90;99.90
5334;DHT22;2689;50.954;7.116;2024-01-25T02:30:04;8.80;99.90
5334;DHT22;2689;50.954;7.116;2024-01-25T02:32:32;8.90;99.90
5334;DHT22;2689;50.954;7.116;2024-01-25T02:34:58;9.00;99.90
5334;DHT22;2689;50.954;7.116;2024-01-25T02:37:25;9.00;99.90
5334;DHT22;2689;50.954;7.116;2024-01-25T02:39:54;9.10;99.90
5334;DHT22;2689;50.954;7.116;2024-01-25T02:42:21;9.10;99.90
5334;DHT22;2689;50.954;7.116;2024-01-25T02:44:48;9.20;99.90
5334;DHT22;2689;50.954;7.116;2024-01-25T02:47:15;9.20;99.90
5334;DHT22;2689;50.954;7.116;2024-01-25T02:49:42;9.10;99.90
5334;DHT22;2689;50.954;7.116;2024-01-25T02:52:09;9.20;99.90
5334;DHT22;2689;50.954;7.116;2024-01-25T02:54:36;9.20;99.90
5334;DHT22;2689;50.954;7.116;2024-01-25T02:57:04;9.10;99.90
5334;DHT22;2689;50.954;7.116;2024-01-25T02:59:31;9.10;99.90
5334;DHT22;2689;50.954;7.116;2024-01-25T03:01:58;9.10;99.90
5334;DHT22;2689;50.954;7.116;2024-01-25T03:04:25;9.10;99.90
5334;DHT22;2689;50.954;7.116;2024-01-25T03:06:51;9.10;99.90
5334;DHT22;2689;50.954;7.116;2024-01-25T03:09:19;9.00;99.90
5334;DHT22;2689;50.954;7.116;2024-01-25T03:11:46;9.00;99.90
5334;DHT22;2689;50.954;7.116;2024-01-25T03:14:15;9.00;99.90
5334;DHT22;2689;50.954;7.116;2024-01-25T03:16:41;8.90;99.90
5334;DHT22;2689;50.954;7.116;2024-01-25T03:19:09;8.90;99.90
5334;DHT22;2689;50.954;7.116;2024-01-25T03:21:36;8.90;99.90
5334;DHT22;2689;50.954;7.116;2024-01-25T03:24:03;9.00;99.90
5334;DHT22;2689;50.954;7.116;2024-01-25T03:26:30;8.90;99.90
5334;DHT22;2689;50.954;7.116;2024-01-25T03:29:02;8.90;99.90
5334;DHT22;2689;50.954;7.116;2024-01-25T03:31:30;8.80;99.90
5334;DHT22;2689;50.954;7.116;2024-01-25T03:33:57;8.80;99.90
5334;DHT22;2689;50.954;7.116;2024-01-25T03:36:24;8.80;99.90
5334;DHT22;2689;50.954;7.116;2024-01-25T03:38:51;8.80;99.90
5334;DHT22;2689;50.954;7.116;2024-01-25T03:41:18;8.80;99.90
5334;DHT22;2689;50.954;7.116;2024-01-25T03:43:45;8.60;99.90
5334;DHT22;2689;50.954;7.116;2024-01-25T03:46:12;8.60;99.90
5334;DHT22;2689;50.954;7.116;2024-01-25T03:48:40;8.50;99.90
5334;DHT22;2689;50.954;7.116;2024-01-25T03:51:06;8.40;99.90
5334;DHT22;2689;50.954;7.116;2024-01-25T03:53:33;8.40;99.90
5334;DHT22;2689;50.954;7.116;2024-01-25T03:56:00;8.30;99.90
5334;DHT22;2689;50.954;7.116;2024-01-25T03:58:27;8.40;99.90
5334;DHT22;2689;50.954;7.116;2024-01-25T04:00:53;8.30;99.90
5334;DHT22;2689;50.954;7.116;2024-01-25T04:03:20;8.40;99.90
5334;DHT22;2689;50.954;7.116;2024-01-25T04:05:48;8.30;99.90
5334;DHT22;2689;50.954;7.116;2024-01-25T04:08:15;8.30;99.90
5334;DHT22;2689;50.954;7.116;2024-01-25T04:10:42;8.40;99.90
5334;DHT22;2689;50.954;7.116;2024-01-25T04:13:09;8.30;99.90
5334;DHT22;2689;50.954;7.116;2024-01-25T04:15:36;8.20;99.90
5334;DHT22;2689;50.954;7.116;2024-01-25T04:18:03;8.30;99.90
5334;DHT22;2689;50.954;7.116;2024-01-25T04:20:30;8.20;99.90
5334;DHT22;2689;50.954;7.116;2024-01-25T04:23:01;8.20;99.90
5334;DHT22;2689;50.954;7.116;2024-01-25T04:25:27;8.20;99.90
5334;DHT22;2689;50.954;7.116;2024-01-25T04:27:54;8.10;99.90
5334;DHT22;2689;50.954;7.116;2024-01-25T04:30:21;8.10;99.90
5334;DHT22;2689;50.954;7.116;2024-01-25T04:32:48;8.10;99.90
5334;DHT22;2689;50.954;7.116;2024-01-25T04:35:14;8.10;99.90
5334;DHT22;2689;50.954;7.116;2024-01-25T04:37:41;8.00;99.90
5334;DHT22;2689;50.954;7.116;2024-01-25T04:40:10;8.00;99.90
5334;DHT22;2689;50.954;7.116;2024-01-25T04:42:37;8.00;99.90
5334;DHT22;2689;50.954;7.116;2024-01-25T04:45:05;8.10;99.90
5334;DHT22;2689;50.954;7.116;2024-01-25T04:47:32;8.00;99.90
5334;DHT22;2689;50.954;7.116;2024-01-25T04:49:59;8.00;99.90
5334;DHT22;2689;50.954;7.116;2024-01-25T04:52:25;7.90;99.90
5334;DHT22;2689;50.954;7.116;2024-01-25T04:54:52;7.90;99.90
5334;DHT22;2689;50.954;7.116;2024-01-25T04:57:20;7.80;99.90
5334;DHT22;2689;50.954;7.116;2024-01-25T04:59:47;7.80;99.90
5334;DHT22;2689;50.954;7.116;2024-01-25T05:02:14;7.70;99.90
5334;DHT22;2689;50.954;7.116;2024-01-25T05:04:41;7.60;99.90
5334;DHT22;2689;50.954;7.116;2024-01-25T05:07:08;7.50;99.90
5334;DHT22;2689;50.954;7.116;2024-01-25T05:09:34;7.40;99.90
5334;DHT22;2689;50.954;7.116;2024-01-25T05:12:01;7.30;99.90
5334;DHT22;2689;50.954;7.116;2024-01-25T05:14:30;7.30;99.90
5334;DHT22;2689;50.954;7.116;2024-01-25T05:16:56;7.20;99.90
5334;DHT22;2689;50.954;7.116;2024-01-25T05:19:23;7.20;99.90
5334;DHT22;2689;50.954;7.116;2024-01-25T05:21:50;7.10;99.90
5334;DHT22;2689;50.954;7.116;2024-01-25T05:24:17;7.10;99.90
5334;DHT22;2689;50.954;7.116;2024-01-25T05:26:44;7.00;99.90
5334;DHT22;2689;50.954;7.116;2024-01-25T05:29:15;7.00;99.90
5334;DHT22;2689;50.954;7.116;2024-01-25T05:31:43;6.90;99.90
5334;DHT22;2689;50.954;7.116;2024-01-25T05:34:10;6.90;99.90
5334;DHT22;2689;50.954;7.116;2024-01-25T05:36:41;6.90;99.90
5334;DHT22;2689;50.954;7.116;2024-01-25T05:39:08;6.80;99.90
5334;DHT22;2689;50.954;7.116;2024-01-25T05:41:35;6.70;99.90
5334;DHT22;2689;50.954;7.116;2024-01-25T05:44:12;6.60;99.90
5334;DHT22;2689;50.954;7.116;2024-01-25T05:46:46;6.60;99.90
5334;DHT22;2689;50.954;7.116;2024-01-25T05:49:14;6.50;99.90
5334;DHT22;2689;50.954;7.116;2024-01-25T05:51:40;6.40;99.90
5334;DHT22;2689;50.954;7.116;2024-01-25T05:54:11;6.40;99.90
5334;DHT22;2689;50.954;7.116;2024-01-25T05:56:38;6.30;99.90
5334;DHT22;2689;50.954;7.116;2024-01-25T05:59:05;6.20;99.90
5334;DHT22;2689;50.954;7.116;2024-01-25T06:01:32;6.20;99.90
5334;DHT22;2689;50.954;7.116;2024-01-25T06:04:00;6.20;99.90
5334;DHT22;2689;50.954;7.116;2024-01-25T06:06:27;6.20;99.90
5334;DHT22;2689;50.954;7.116;2024-01-25T06:08:54;6.10;99.90
5334;DHT22;2689;50.954;7.116;2024-01-25T06:11:21;6.20;99.90
5334;DHT22;2689;50.954;7.116;2024-01-25T06:13:47;6.10;99.90
5334;DHT22;2689;50.954;7.116;2024-01-25T06:16:13;6.00;99.90
5334;DHT22;2689;50.954;7.116;2024-01-25T06:18:40;6.00;99.90
5334;DHT22;2689;50.954;7.116;2024-01-25T06:21:08;5.90;99.90
5334;DHT22;2689;50.954;7.116;2024-01-25T06:23:35;5.90;99.90
5334;DHT22;2689;50.954;7.116;2024-01-25T06:26:02;5.80;99.90
5334;DHT22;2689;50.954;7.116;2024-01-25T06:28:30;5.80;99.90
5334;DHT22;2689;50.954;7.116;2024-01-25T06:30:57;5.80;99.90
5334;DHT22;2689;50.954;7.116;2024-01-25T06:33:24;5.80;99.90
5334;DHT22;2689;50.954;7.116;2024-01-25T06:35:50;5.80;99.90
5334;DHT22;2689;50.954;7.116;2024-01-25T06:38:25;5.70;99.90
5334;DHT22;2689;50.954;7.116;2024-01-25T06:40:51;5.70;99.90
5334;DHT22;2689;50.954;7.116;2024-01-25T06:43:18;5.60;99.90
5334;DHT22;2689;50.954;7.116;2024-01-25T06:45:45;5.50;99.90
5334;DHT22;2689;50.954;7.116;2024-01-25T06:48:12;5.50;99.90
5334;DHT22;2689;50.954;7.116;2024-01-25T06:50:39;5.50;99.90
5334;DHT22;2689;50.954;7.116;2024-01-25T06:53:06;5.40;99.90
5334;DHT22;2689;50.954;7.116;2024-01-25T06:55:34;5.40;99.90
5334;DHT22;2689;50.954;7.116;2024-01-25T06:58:01;5.40;99.90
5334;DHT22;2689;50.954;7.116;2024-01-25T07:00:28;5.40;99.90
5334;DHT22;2689;50.954;7.116;2024-01-25T07:02:55;5.40;99.90
5334;DHT22;2689;50.954;7.116;2024-01-25T07:05:22;5.40;99.90
5334;DHT22;2689;50.954;7.116;2024-01-25T07:07:50;5.40;99.90
5334;DHT22;2689;50.954;7.116;2024-01-25T07:10:16;5.40;99.90
5334;DHT22;2689;50.954;7.116;2024-01-25T07:12:44;5.40;99.90
5334;DHT22;2689;50.954;7.116;2024-01-25T07:15:11;5.40;99.90
5334;DHT22;2689;50.954;7.116;2024-01-25T07:17:38;5.40;99.90
5334;DHT22;2689;50.954;7.116;2024-01-25T07:20:07;5.30;99.90
5334;DHT22;2689;50.954;7.116;2024-01-25T07:22:34;5.20;99.90
5334;DHT22;2689;50.954;7.116;2024-01-25T07:25:01;5.20;99.90
5334;DHT22;2689;50.954;7.116;2024-01-25T07:27:28;5.20;99.90
5334;DHT22;2689;50.954;7.116;2024-01-25T07:29:58;5.30;99.90
5334;DHT22;2689;50.954;7.116;2024-01-25T07:32:25;5.30;99.90
5334;DHT22;2689;50.954;7.116;2024-01-25T07:34:52;5.30;99.90
5334;DHT22;2689;50.954;7.116;2024-01-25T07:37:19;5.30;99.90
5334;DHT22;2689;50.954;7.116;2024-01-25T07:39:46;5.40;99.90
5334;DHT22;2689;50.954;7.116;2024-01-25T07:42:13;5.30;99.90
5334;DHT22;2689;50.954;7.116;2024-01-25T07:44:39;5.30;99.90
5334;DHT22;2689;50.954;7.116;2024-01-25T07:47:07;5.30;99.90
5334;DHT22;2689;50.954;7.116;2024-01-25T07:49:34;5.40;99.90
5334;DHT22;2689;50.954;7.116;2024-01-25T07:52:01;5.40;99.90
5334;DHT22;2689;50.954;7.116;2024-01-25T07:54:28;5.40;99.90
5334;DHT22;2689;50.954;7.116;2024-01-25T07:56:55;5.50;99.90
5334;DHT22;2689;50.954;7.116;2024-01-25T07:59:21;5.50;99.90
5334;DHT22;2689;50.954;7.116;2024-01-25T08:01:48;5.50;99.90
5334;DHT22;2689;50.954;7.116;2024-01-25T08:04:16;5.40;99.90
5334;DHT22;2689;50.954;7.116;2024-01-25T08:06:43;5.50;99.90
5334;DHT22;2689;50.954;7.116;2024-01-25T08:09:10;5.60;99.90
5334;DHT22;2689;50.954;7.116;2024-01-25T08:11:37;5.70;99.90
5334;DHT22;2689;50.954;7.116;2024-01-25T08:14:04;5.90;99.90
5334;DHT22;2689;50.954;7.116;2024-01-25T08:16:30;5.90;99.90
5334;DHT22;2689;50.954;7.116;2024-01-25T08:18:57;6.00;99.90
5334;DHT22;2689;50.954;7.116;2024-01-25T08:21:26;6.20;99.90
5334;DHT22;2689;50.954;7.116;2024-01-25T08:23:52;6.20;99.90
5334;DHT22;2689;50.954;7.116;2024-01-25T08:26:19;6.30;99.90
5334;DHT22;2689;50.954;7.116;2024-01-25T08:28:46;6.50;99.90
5334;DHT22;2689;50.954;7.116;2024-01-25T08:31:13;6.70;99.90
5334;DHT22;2689;50.954;7.116;2024-01-25T08:33:40;6.90;99.90
5334;DHT22;2689;50.954;7.116;2024-01-25T08:36:09;7.10;99.90
5334;DHT22;2689;50.954;7.116;2024-01-25T08:38:37;7.30;99.90
5334;DHT22;2689;50.954;7.116;2024-01-25T08:41:04;7.50;99.90
5334;DHT22;2689;50.954;7.116;2024-01-25T08:43:31;7.60;99.90
5334;DHT22;2689;50.954;7.116;2024-01-25T08:45:58;7.70;99.90
5334;DHT22;2689;50.954;7.116;2024-01-25T08:48:25;7.80;99.90
5334;DHT22;2689;50.954;7.116;2024-01-25T08:50:51;7.90;99.90
5334;DHT22;2689;50.954;7.116;2024-01-25T08:53:20;8.10;99.90
5334;DHT22;2689;50.954;7.116;2024-01-25T08:55:49;8.20;99.90
5334;DHT22;2689;50.954;7.116;2024-01-25T08:58:16;8.40;99.90
5334;DHT22;2689;50.954;7.116;2024-01-25T09:00:43;8.70;99.90
5334;DHT22;2689;50.954;7.116;2024-01-25T09:03:10;8.90;99.90
5334;DHT22;2689;50.954;7.116;2024-01-25T09:05:37;9.20;99.90
5334;DHT22;2689;50.954;7.116;2024-01-25T09:08:10;9.50;99.90
5334;DHT22;2689;50.954;7.116;2024-01-25T09:10:37;9.80;99.90
5334;DHT22;2689;50.954;7.116;2024-01-25T09:13:05;9.90;99.90
5334;DHT22;2689;50.954;7.116;2024-01-25T09:15:32;9.90;99.90
5334;DHT22;2689;50.954;7.116;2024-01-25T09:17:59;9.90;99.90
5334;DHT22;2689;50.954;7.116;2024-01-25T09:20:26;10.00;99.90
5334;DHT22;2689;50.954;7.116;2024-01-25T09:22:52;10.10;99.90
5334;DHT22;2689;50.954;7.116;2024-01-25T09:25:20;10.30;99.90
5334;DHT22;2689;50.954;7.116;2024-01-25T09:27:47;10.50;99.90
5334;DHT22;2689;50.954;7.116;2024-01-25T09:30:22;10.60;99.90
5334;DHT22;2689;50.954;7.116;2024-01-25T09:39:46;10.90;99.90
5334;DHT22;2689;50.954;7.116;2024-01-25T09:42:16;11.00;99.90
5334;DHT22;2689;50.954;7.116;2024-01-25T09:44:44;11.00;99.90
5334;DHT22;2689;50.954;7.116;2024-01-25T09:47:14;10.80;99.90
5334;DHT22;2689;50.954;7.116;2024-01-25T09:49:47;11.20;99.90
5334;DHT22;2689;50.954;7.116;2024-01-25T09:52:19;11.70;99.90
5334;DHT22;2689;50.954;7.116;2024-01-25T09:54:52;11.80;99.90
5334;DHT22;2689;50.954;7.116;2024-01-25T09:57:23;12.00;99.90
5334;DHT22;2689;50.954;7.116;2024-01-25T09:59:52;12.00;99.90
5334;DHT22;2689;50.954;7.116;2024-01-25T10:02:22;12.00;99.90
5334;DHT22;2689;50.954;7.116;2024-01-25T10:04:50;11.80;99.90
5334;DHT22;2689;50.954;7.116;2024-01-25T10:09:59;11.40;99.90
5334;DHT22;2689;50.954;7.116;2024-01-25T10:12:26;11.20;99.90
5334;DHT22;2689;50.954;7.116;2024-01-25T10:14:55;11.40;99.90
5334;DHT22;2689;50.954;7.116;2024-01-25T10:17:23;11.40;99.90
5334;DHT22;2689;50.954;7.116;2024-01-25T10:19:49;11.50;99.90
5334;DHT22;2689;50.954;7.116;2024-01-25T10:22:16;11.50;99.90
5334;DHT22;2689;50.954;7.116;2024-01-25T10:24:43;11.60;99.90
5334;DHT22;2689;50.954;7.116;2024-01-25T10:27:10;11.60;99.90
5334;DHT22;2689;50.954;7.116;2024-01-25T10:29:37;11.60;99.90
5334;DHT22;2689;50.954;7.116;2024-01-25T10:32:08;11.60;99.90
5334;DHT22;2689;50.954;7.116;2024-01-25T10:34:37;11.40;99.90
5334;DHT22;2689;50.954;7.116;2024-01-25T10:37:06;11.60;99.90
5334;DHT22;2689;50.954;7.116;2024-01-25T10:39:59;11.70;99.90
5334;DHT22;2689;50.954;7.116;2024-01-25T10:49:53;11.90;99.90
5334;DHT22;2689;50.954;7.116;2024-01-25T10:52:56;12.10;99.90
5334;DHT22;2689;50.954;7.116;2024-01-25T10:55:31;12.30;99.90
5334;DHT22;2689;50.954;7.116;2024-01-25T11:01:30;12.30;99.80
5334;DHT22;2689;50.954;7.116;2024-01-25T11:04:39;12.00;99.90
5334;DHT22;2689;50.954;7.116;2024-01-25T11:24:55;12.90;96.00
5334;DHT22;2689;50.954;7.116;2024-01-25T11:27:36;13.10;94.90
5334;DHT22;2689;50.954;7.116;2024-01-25T11:30:08;13.00;95.30
5334;DHT22;2689;50.954;7.116;2024-01-25T11:32:42;13.10;95.00
5334;DHT22;2689;50.954;7.116;2024-01-25T11:35:12;13.10;94.70
5334;DHT22;2689;50.954;7.116;2024-01-25T11:37:49;13.10;94.90
5334;DHT22;2689;50.954;7.116;2024-01-25T11:40:20;13.00;94.30
5334;DHT22;2689;50.954;7.116;2024-01-25T11:42:48;12.90;94.10
5334;DHT22;2689;50.954;7.116;2024-01-25T11:45:15;12.80;94.00
5334;DHT22;2689;50.954;7.116;2024-01-25T11:47:42;12.60;94.30
5334;DHT22;2689;50.954;7.116;2024-01-25T11:50:11;12.60;95.00
5334;DHT22;2689;50.954;7.116;2024-01-25T11:52:38;12.60;94.10
5334;DHT22;2689;50.954;7.116;2024-01-25T11:55:06;12.50;94.00
5334;DHT22;2689;50.954;7.116;2024-01-25T11:57:37;12.40;94.40
5334;DHT22;2689;50.954;7.116;2024-01-25T12:00:09;12.40;94.60
5334;DHT22;2689;50.954;7.116;2024-01-25T12:02:37;12.30;94.70
5334;DHT22;2689;50.954;7.116;2024-01-25T12:05:10;12.30;94.70
5334;DHT22;2689;50.954;7.116;2024-01-25T12:07:39;12.30;94.70
5334;DHT22;2689;50.954;7.116;2024-01-25T12:10:07;12.20;96.00
5334;DHT22;2689;50.954;7.116;2024-01-25T12:12:37;12.10;95.60
5334;DHT22;2689;50.954;7.116;2024-01-25T12:15:06;12.40;95.00
5334;DHT22;2689;50.954;7.116;2024-01-25T12:17:33;12.30;94.40
5334;DHT22;2689;50.954;7.116;2024-01-25T12:20:02;12.10;94.50
5334;DHT22;2689;50.954;7.116;2024-01-25T12:22:33;12.20;94.40
5334;DHT22;2689;50.954;7.116;2024-01-25T12:24:59;12.20;94.40
5334;DHT22;2689;50.954;7.116;2024-01-25T12:27:26;12.20;94.60
5334;DHT22;2689;50.954;7.116;2024-01-25T12:29:54;12.00;94.60
5334;DHT22;2689;50.954;7.116;2024-01-25T12:32:21;12.10;95.20
5334;DHT22;2689;50.954;7.116;2024-01-25T12:34:55;12.20;95.80
5334;DHT22;2689;50.954;7.116;2024-01-25T12:37:22;12.30;95.30
5334;DHT22;2689;50.954;7.116;2024-01-25T12:39:49;12.30;95.10
5334;DHT22;2689;50.954;7.116;2024-01-25T12:42:16;12.40;94.20
5334;DHT22;2689;50.954;7.116;2024-01-25T12:44:43;12.30;93.10
5334;DHT22;2689;50.954;7.116;2024-01-25T12:47:12;12.30;92.80
5334;DHT22;2689;50.954;7.116;2024-01-25T12:49:40;12.20;93.10
5334;DHT22;2689;50.954;7.116;2024-01-25T12:52:08;12.20;92.70
5334;DHT22;2689;50.954;7.116;2024-01-25T12:54:36;12.10;91.80
5334;DHT22;2689;50.954;7.116;2024-01-25T12:57:03;12.10;91.40
5334;DHT22;2689;50.954;7.116;2024-01-25T12:59:30;12.00;91.30
5334;DHT22;2689;50.954;7.116;2024-01-25T13:01:58;12.00;91.60
5334;DHT22;2689;50.954;7.116;2024-01-25T13:04:28;11.90;91.70
5334;DHT22;2689;50.954;7.116;2024-01-25T13:06:56;11.80;91.80
5334;DHT22;2689;50.954;7.116;2024-01-25T13:09:25;11.70;92.00
5334;DHT22;2689;50.954;7.116;2024-01-25T13:12:02;11.70;92.20
5334;DHT22;2689;50.954;7.116;2024-01-25T13:14:33;11.60;92.10
5334;DHT22;2689;50.954;7.116;2024-01-25T13:17:01;11.70;92.10
5334;DHT22;2689;50.954;7.116;2024-01-25T13:19:30;11.60;92.20
5334;DHT22;2689;50.954;7.116;2024-01-25T13:21:57;11.60;92.50
5334;DHT22;2689;50.954;7.116;2024-01-25T13:24:26;11.50;92.70
5334;DHT22;2689;50.954;7.116;2024-01-25T13:30:08;11.50;93.10
5334;DHT22;2689;50.954;7.116;2024-01-25T13:32:37;11.50;93.20
5334;DHT22;2689;50.954;7.116;2024-01-25T13:35:06;11.70;93.60
5334;DHT22;2689;50.954;7.116;2024-01-25T13:37:33;11.60;93.00
5334;DHT22;2689;50.954;7.116;2024-01-25T13:39:59;11.70;93.10
5334;DHT22;2689;50.954;7.116;2024-01-25T13:42:26;11.90;92.70
5334;DHT22;2689;50.954;7.116;2024-01-25T13:44:53;12.00;92.30
5334;DHT22;2689;50.954;7.116;2024-01-25T13:47:20;12.10;92.20
5334;DHT22;2689;50.954;7.116;2024-01-25T13:49:48;11.90;92.20
5334;DHT22;2689;50.954;7.116;2024-01-25T13:52:19;12.00;92.30
5334;DHT22;2689;50.954;7.116;2024-01-25T13:54:46;12.10;92.70
5334;DHT22;2689;50.954;7.116;2024-01-25T13:57:13;12.20;92.20
5334;DHT22;2689;50.954;7.116;2024-01-25T13:59:40;12.20;92.10
5334;DHT22;2689;50.954;7.116;2024-01-25T14:02:07;12.10;92.30
5334;DHT22;2689;50.954;7.116;2024-01-25T14:04:34;12.20;92.90
5334;DHT22;2689;50.954;7.116;2024-01-25T14:07:00;12.10;92.60
5334;DHT22;2689;50.954;7.116;2024-01-25T14:09:29;12.20;92.50
5334;DHT22;2689;50.954;7.116;2024-01-25T14:11:56;12.20;92.20
5334;DHT22;2689;50.954;7.116;2024-01-25T14:14:23;12.00;92.50
5334;DHT22;2689;50.954;7.116;2024-01-25T14:16:50;11.90;92.80
5334;DHT22;2689;50.954;7.116;2024-01-25T14:19:16;11.90;93.30
5334;DHT22;2689;50.954;7.116;2024-01-25T14:21:46;11.90;92.80
5334;DHT22;2689;50.954;7.116;2024-01-25T14:24:12;11.90;93.00
5334;DHT22;2689;50.954;7.116;2024-01-25T14:26:41;11.80;93.20
5334;DHT22;2689;50.954;7.116;2024-01-25T14:29:07;11.60;93.00
5334;DHT22;2689;50.954;7.116;2024-01-25T14:31:34;11.60;93.30
5334;DHT22;2689;50.954;7.116;2024-01-25T14:34:01;11.70;93.20
5334;DHT22;2689;50.954;7.116;2024-01-25T14:36:28;11.80;93.20
5334;DHT22;2689;50.954;7.116;2024-01-25T14:38:55;11.90;93.50
5334;DHT22;2689;50.954;7.116;2024-01-25T14:41:21;11.80;93.20
5334;DHT22;2689;50.954;7.116;2024-01-25T14:43:50;11.60;93.10
5334;DHT22;2689;50.954;7.116;2024-01-25T14:46:16;11.60;93.40
5334;DHT22;2689;50.954;7.116;2024-01-25T14:48:43;11.60;93.60
5334;DHT22;2689;50.954;7.116;2024-01-25T14:51:10;11.60;93.80
5334;DHT22;2689;50.954;7.116;2024-01-25T14:53:37;11.50;94.20
5334;DHT22;2689;50.954;7.116;2024-01-25T14:56:22;11.30;94.40
5334;DHT22;2689;50.954;7.116;2024-01-25T14:58:50;11.20;94.30
5334;DHT22;2689;50.954;7.116;2024-01-25T15:01:17;11.10;94.50
5334;DHT22;2689;50.954;7.116;2024-01-25T15:03:46;11.10;94.70
5334;DHT22;2689;50.954;7.116;2024-01-25T15:06:13;11.10;95.20
5334;DHT22;2689;50.954;7.116;2024-01-25T15:08:40;11.10;95.20
5334;DHT22;2689;50.954;7.116;2024-01-25T15:11:07;11.10;95.20
5334;DHT22;2689;50.954;7.116;2024-01-25T15:13:34;11.10;95.10
5334;DHT22;2689;50.954;7.116;2024-01-25T15:16:02;11.20;95.30
5334;DHT22;2689;50.954;7.116;2024-01-25T15:18:29;11.30;95.20
5334;DHT22;2689;50.954;7.116;2024-01-25T15:20:57;11.30;95.20
5334;DHT22;2689;50.954;7.116;2024-01-25T15:23:24;11.30;95.00
5334;DHT22;2689;50.954;7.116;2024-01-25T15:25:51;11.20;95.40
5334;DHT22;2689;50.954;7.116;2024-01-25T15:28:19;11.20;95.60
5334;DHT22;2689;50.954;7.116;2024-01-25T15:30:45;11.20;95.70
5334;DHT22;2689;50.954;7.116;2024-01-25T15:33:14;11.20;95.90
5334;DHT22;2689;50.954;7.116;2024-01-25T15:35:40;11.20;95.80
5334;DHT22;2689;50.954;7.116;2024-01-25T15:38:07;11.10;95.60
5334;DHT22;2689;50.954;7.116;2024-01-25T15:40:34;11.10;95.70
5334;DHT22;2689;50.954;7.116;2024-01-25T15:43:01;11.00;95.60
5334;DHT22;2689;50.954;7.116;2024-01-25T15:45:28;11.00;95.60
5334;DHT22;2689;50.954;7.116;2024-01-25T15:47:55;11.00;95.90
5334;DHT22;2689;50.954;7.116;2024-01-25T15:50:24;10.90;95.70
5334;DHT22;2689;50.954;7.116;2024-01-25T15:52:50;10.90;96.00
5334;DHT22;2689;50.954;7.116;2024-01-25T15:55:19;10.90;96.10
5334;DHT22;2689;50.954;7.116;2024-01-25T15:57:46;10.80;96.20
5334;DHT22;2689;50.954;7.116;2024-01-25T16:00:14;10.80;96.10
5334;DHT22;2689;50.954;7.116;2024-01-25T16:02:42;10.80;96.20
5334;DHT22;2689;50.954;7.116;2024-01-25T16:05:09;10.90;96.30
5334;DHT22;2689;50.954;7.116;2024-01-25T16:07:38;10.80;96.20
5334;DHT22;2689;50.954;7.116;2024-01-25T16:10:06;10.80;96.30
5334;DHT22;2689;50.954;7.116;2024-01-25T16:12:35;10.70;96.40
5334;DHT22;2689;50.954;7.116;2024-01-25T16:15:03;10.80;96.60
5334;DHT22;2689;50.954;7.116;2024-01-25T16:17:31;10.70;96.50
5334;DHT22;2689;50.954;7.116;2024-01-25T16:19:59;10.80;96.60
5334;DHT22;2689;50.954;7.116;2024-01-25T16:22:25;10.80;96.50
5334;DHT22;2689;50.954;7.116;2024-01-25T16:24:54;10.80;96.30
5334;DHT22;2689;50.954;7.116;2024-01-25T16:27:21;10.80;96.40
5334;DHT22;2689;50.954;7.116;2024-01-25T16:29:47;10.70;96.40
5334;DHT22;2689;50.954;7.116;2024-01-25T16:32:14;10.80;96.40
5334;DHT22;2689;50.954;7.116;2024-01-25T16:34:41;10.80;96.60
5334;DHT22;2689;50.954;7.116;2024-01-25T16:37:08;10.80;96.10
5334;DHT22;2689;50.954;7.116;2024-01-25T16:39:35;10.70;96.10
5334;DHT22;2689;50.954;7.116;2024-01-25T16:42:03;10.60;96.00
5334;DHT22;2689;50.954;7.116;2024-01-25T16:44:30;10.50;95.90
5334;DHT22;2689;50.954;7.116;2024-01-25T16:46:57;10.50;96.10
5334;DHT22;2689;50.954;7.116;2024-01-25T16:49:24;10.40;96.10
5334;DHT22;2689;50.954;7.116;2024-01-25T16:51:51;10.50;96.20
5334;DHT22;2689;50.954;7.116;2024-01-25T16:54:17;10.50;96.20
5334;DHT22;2689;50.954;7.116;2024-01-25T16:56:44;10.50;96.10